This is the latest recevied weather packets stored in our database for station/object WW3TRG. If no packets are shown the sender has not sent any weather packets the latest 1 day(s).
| Time | Temp. | Humidity | Pressure | Rain* | Wind** | Luminosity | Snow |
|---|---|---|---|---|---|---|---|
| 1778011189 | 28.89° C | 41% | 1006.4 hPa | 0 mm | 0 m/s | 482 W/m² | - |
| 1778010886 | 27.78° C | 44% | 1006.3 hPa | 0 mm | 0 m/s | 412 W/m² | - |
| 1778010583 | 27.78° C | 43% | 1006.3 hPa | 0 mm | 0.89 m/s, 307° | 248 W/m² | - |
| 1778010281 | 28.33° C | 41% | 1006.4 hPa | 0 mm | 0 m/s | 116 W/m² | - |
| 1778009981 | 29.44° C | 39% | 1006.4 hPa | 0 mm | 1.34 m/s, 337° | 453 W/m² | - |
| 1778009678 | 28.89° C | 35% | 1006.3 hPa | 0 mm | 0.45 m/s, 243° | 500 W/m² | - |
| 1778009376 | 28.89° C | 34% | 1006.4 hPa | 0 mm | 0.89 m/s, 339° | 335 W/m² | - |
| 1778009074 | 29.44° C | 34% | 1006.4 hPa | 0 mm | 1.34 m/s, 241° | 535 W/m² | - |
| 1778008771 | 28.89° C | 34% | 1006.6 hPa | 0 mm | 0.89 m/s, 0° | 391 W/m² | - |
| 1778008470 | 28.89° C | 36% | 1006.8 hPa | 0 mm | 0 m/s | 436 W/m² | - |
| 1778008166 | 28.89° C | 33% | 1006.8 hPa | 0 mm | 2.68 m/s, 190° | 555 W/m² | - |
| 1778007861 | 28.89° C | 36% | 1006.8 hPa | 0 mm | 4.02 m/s, 200° | 579 W/m² | - |
| 1778007557 | 28.33° C | 34% | 1006.8 hPa | 0 mm | 0.89 m/s, 232° | 514 W/m² | - |
| 1778007255 | 28.89° C | 35% | 1006.9 hPa | 0 mm | 1.79 m/s, 70° | 500 W/m² | - |
| 1778006950 | 28.33° C | 33% | 1006.6 hPa | 0 mm | 1.79 m/s, 235° | 431 W/m² | - |
| 1778006648 | 28.89° C | 36% | 1007.3 hPa | 0 mm | 0 m/s | 549 W/m² | - |
| 1778006345 | 28.89° C | 35% | 1007 hPa | 0 mm | 0.45 m/s, 286° | 570 W/m² | - |
| 1778006041 | 28.89° C | 39% | 1007.1 hPa | 0 mm | 1.34 m/s, 190° | 579 W/m² | - |
| 1778005738 | 28.89° C | 36% | 1007.2 hPa | 0 mm | 0.89 m/s, 248° | 587 W/m² | - |
| 1778005435 | 28.89° C | 33% | 1007.3 hPa | 0 mm | 0.89 m/s, 190° | 526 W/m² | - |
| 1778005131 | 28.89° C | 35% | 1007.2 hPa | 0 mm | 0.89 m/s, 265° | 635 W/m² | - |
| 1778004829 | 28.89° C | 36% | 1007.5 hPa | 0 mm | 1.34 m/s, 326° | 569 W/m² | - |
| 1778004525 | 28.89° C | 36% | 1007.5 hPa | 0 mm | 0 m/s | 673 W/m² | - |
| 1778004221 | 28.33° C | 36% | 1007.7 hPa | 0 mm | 4.47 m/s, 204° | 685 W/m² | - |
| 1778003919 | 28.33° C | 37% | 1007.8 hPa | 0 mm | 1.79 m/s, 220° | 674 W/m² | - |
* Rain latest hour (hover to see other rain measurements)
** Current wind speed in m/s (hover to see current wind gust speed)